createdAt,value
2023-01-17T00:02:24.753Z,100.00
2023-01-17T00:05:10.860Z,100.00
2023-01-17T00:07:56.681Z,100.00
2023-01-17T00:10:27.098Z,100.00
2023-01-17T00:12:57.906Z,100.00
2023-01-17T00:15:26.869Z,100.00
2023-01-17T00:17:54.655Z,100.00
2023-01-17T00:20:43.447Z,99.79
2023-01-17T00:23:39.262Z,99.21
2023-01-17T00:26:11.573Z,98.70
2023-01-17T00:28:41.318Z,99.37
2023-01-17T00:31:09.699Z,99.67
2023-01-17T00:33:37.547Z,99.62
2023-01-17T00:36:06.251Z,99.15
2023-01-17T00:38:36.555Z,99.10
2023-01-17T00:41:06.313Z,98.73
2023-01-17T00:43:52.720Z,98.62
2023-01-17T00:46:39.146Z,97.91
2023-01-17T00:49:26.058Z,97.08
2023-01-17T00:52:12.017Z,97.91
2023-01-17T00:54:58.330Z,98.64
2023-01-17T00:57:44.539Z,98.24
2023-01-17T01:00:31.094Z,98.79
2023-01-17T01:03:17.508Z,97.99
2023-01-17T01:06:03.773Z,98.06
2023-01-17T01:08:49.909Z,97.93
2023-01-17T01:11:40.221Z,97.97
2023-01-17T01:14:29.011Z,98.03
2023-01-17T01:17:15.218Z,97.28
2023-01-17T01:20:01.057Z,97.89
2023-01-17T01:22:47.206Z,97.97
2023-01-17T01:25:32.864Z,98.21
2023-01-17T01:28:29.212Z,98.59
2023-01-17T01:31:18.237Z,99.00
2023-01-17T01:33:45.936Z,98.96
2023-01-17T01:36:13.258Z,99.49
2023-01-17T01:38:40.657Z,99.24
2023-01-17T01:41:08.642Z,99.29
2023-01-17T01:43:42.512Z,99.50
2023-01-17T01:46:14.050Z,99.13
2023-01-17T01:48:56.754Z,100.00
2023-01-17T01:51:29.755Z,100.00
2023-01-17T01:54:05.300Z,100.00
2023-01-17T01:56:34.260Z,100.00
2023-01-17T01:59:07.404Z,100.00
2023-01-17T02:01:36.493Z,100.00
2023-01-17T02:04:10.125Z,100.00
2023-01-17T02:06:45.314Z,100.00
2023-01-17T02:09:15.793Z,100.00
2023-01-17T02:11:44.659Z,100.00
2023-01-17T02:14:16.636Z,100.00
2023-01-17T02:17:13.109Z,100.00
2023-01-17T02:19:52.676Z,100.00
2023-01-17T02:22:40.892Z,100.00
2023-01-17T02:25:23.985Z,100.00
2023-01-17T02:28:08.223Z,100.00
2023-01-17T02:30:39.637Z,100.00
2023-01-17T02:33:28.676Z,100.00
2023-01-17T02:36:06.481Z,100.00
2023-01-17T02:38:44.586Z,100.00
2023-01-17T02:41:19.701Z,100.00
2023-01-17T02:43:50.926Z,100.00
2023-01-17T02:46:18.614Z,100.00
2023-01-17T02:48:47.102Z,100.00
2023-01-17T02:51:26.807Z,100.00
2023-01-17T02:54:00.284Z,100.00
2023-01-17T02:56:46.649Z,100.00
2023-01-17T02:59:35.672Z,100.00
2023-01-17T03:02:40.874Z,100.00
2023-01-17T03:05:20.594Z,100.00
2023-01-17T03:07:49.131Z,100.00
2023-01-17T03:10:19.812Z,100.00
2023-01-17T03:12:47.508Z,100.00
2023-01-17T03:15:17.784Z,100.00
2023-01-17T03:17:49.721Z,100.00
2023-01-17T03:20:17.599Z,100.00
2023-01-17T03:22:44.867Z,100.00
2023-01-17T03:25:12.287Z,100.00
2023-01-17T03:27:40.371Z,100.00
2023-01-17T03:30:09.712Z,100.00
2023-01-17T03:32:37.181Z,100.00
2023-01-17T03:35:05.204Z,100.00
2023-01-17T03:37:32.441Z,100.00
2023-01-17T03:39:59.682Z,100.00
2023-01-17T03:42:27.227Z,100.00
2023-01-17T03:44:54.438Z,100.00
2023-01-17T03:47:21.629Z,100.00
2023-01-17T03:49:49.207Z,100.00
2023-01-17T03:52:16.483Z,100.00
2023-01-17T03:54:43.935Z,100.00
2023-01-17T03:57:11.595Z,100.00
2023-01-17T03:59:38.879Z,100.00
2023-01-17T04:02:06.379Z,100.00
2023-01-17T04:04:34.341Z,100.00
2023-01-17T04:07:01.686Z,100.00
2023-01-17T04:09:34.061Z,100.00
2023-01-17T04:12:03.170Z,100.00
2023-01-17T04:14:30.527Z,100.00
2023-01-17T04:16:57.913Z,100.00
2023-01-17T04:19:25.614Z,100.00
2023-01-17T04:21:52.935Z,100.00
2023-01-17T04:24:20.242Z,100.00
2023-01-17T04:26:47.900Z,100.00
2023-01-17T04:29:15.252Z,100.00
2023-01-17T04:31:42.583Z,100.00
2023-01-17T04:34:10.488Z,100.00
2023-01-17T04:36:38.206Z,100.00
2023-01-17T04:39:05.706Z,100.00
2023-01-17T04:41:33.926Z,100.00
2023-01-17T04:44:02.146Z,100.00
2023-01-17T04:46:29.549Z,100.00
2023-01-17T04:48:57.219Z,100.00
2023-01-17T04:51:24.837Z,100.00
2023-01-17T04:53:52.209Z,100.00
2023-01-17T04:56:20.006Z,100.00
2023-01-17T04:58:47.322Z,100.00
2023-01-17T05:01:14.962Z,100.00
2023-01-17T05:03:42.740Z,100.00
2023-01-17T05:06:10.274Z,100.00
2023-01-17T05:08:37.884Z,100.00
2023-01-17T05:11:05.728Z,100.00
2023-01-17T05:13:33.184Z,100.00
2023-01-17T05:16:00.588Z,100.00
2023-01-17T05:18:28.376Z,100.00
2023-01-17T05:21:01.471Z,100.00
2023-01-17T05:23:31.224Z,100.00
2023-01-17T05:25:58.648Z,100.00
2023-01-17T05:28:26.005Z,100.00
2023-01-17T05:30:53.635Z,100.00
2023-01-17T05:33:20.979Z,100.00
2023-01-17T05:35:48.385Z,100.00
2023-01-17T05:38:16.089Z,100.00
2023-01-17T05:40:43.421Z,100.00
2023-01-17T05:43:10.828Z,100.00
2023-01-17T05:45:38.515Z,100.00
2023-01-17T05:48:06.821Z,100.00
2023-01-17T05:50:38.673Z,100.00
2023-01-17T05:53:12.420Z,100.00
2023-01-17T05:55:40.937Z,100.00
2023-01-17T05:58:19.024Z,100.00
2023-01-17T06:00:46.881Z,100.00
2023-01-17T06:03:15.196Z,100.00
2023-01-17T06:05:43.145Z,100.00
2023-01-17T06:08:11.139Z,100.00
2023-01-17T06:10:39.090Z,100.00
2023-01-17T06:13:12.860Z,100.00
2023-01-17T06:15:41.228Z,100.00
2023-01-17T06:18:14.525Z,100.00
2023-01-17T06:20:43.097Z,100.00
2023-01-17T06:23:13.341Z,100.00
2023-01-17T06:25:45.484Z,100.00
2023-01-17T06:28:15.849Z,100.00
2023-01-17T06:30:46.856Z,100.00
2023-01-17T06:33:14.998Z,100.00
2023-01-17T06:35:52.953Z,100.00
2023-01-17T06:38:21.512Z,100.00
2023-01-17T06:40:49.095Z,100.00
2023-01-17T06:43:17.052Z,100.00
2023-01-17T06:45:44.730Z,100.00
2023-01-17T06:48:12.077Z,100.00
2023-01-17T06:50:39.541Z,100.00
2023-01-17T06:53:07.708Z,100.00
2023-01-17T06:55:37.364Z,100.00
2023-01-17T06:58:04.668Z,100.00
2023-01-17T07:00:35.352Z,100.00
2023-01-17T07:03:02.748Z,100.00
2023-01-17T07:05:30.213Z,100.00
2023-01-17T07:07:58.208Z,100.00
2023-01-17T07:10:25.714Z,100.00
2023-01-17T07:12:59.816Z,100.00
2023-01-17T07:15:27.928Z,100.00
2023-01-17T07:17:55.285Z,100.00
2023-01-17T07:20:22.699Z,100.00
2023-01-17T07:22:50.319Z,100.00
2023-01-17T07:25:18.113Z,100.00
2023-01-17T07:27:45.443Z,99.78
2023-01-17T07:30:13.683Z,99.86
2023-01-17T07:32:40.990Z,98.89
2023-01-17T07:35:08.721Z,98.65
2023-01-17T07:37:36.362Z,98.58
2023-01-17T07:40:04.613Z,97.64
2023-01-17T07:42:32.200Z,97.81
2023-01-17T07:45:00.892Z,97.49
2023-01-17T07:47:28.263Z,97.40
2023-01-17T07:49:55.720Z,96.30
2023-01-17T07:52:23.841Z,97.01
2023-01-17T07:54:51.145Z,95.98
2023-01-17T07:57:18.495Z,96.21
2023-01-17T07:59:46.238Z,95.51
2023-01-17T08:02:23.903Z,95.25
2023-01-17T08:04:51.740Z,95.78
2023-01-17T08:07:19.032Z,94.73
2023-01-17T08:09:49.915Z,95.07
2023-01-17T08:12:17.743Z,94.38
2023-01-17T08:14:45.230Z,93.22
2023-01-17T08:17:15.149Z,93.70
2023-01-17T08:19:43.568Z,92.20
2023-01-17T08:22:12.436Z,92.09
2023-01-17T08:24:39.794Z,90.70
2023-01-17T08:27:09.118Z,90.80
2023-01-17T08:29:37.046Z,89.78
2023-01-17T08:32:04.549Z,90.42
2023-01-17T08:34:33.666Z,90.46
2023-01-17T08:37:01.071Z,89.69
2023-01-17T08:39:28.934Z,88.23
2023-01-17T08:41:57.609Z,89.07
2023-01-17T08:44:25.195Z,88.13
2023-01-17T08:46:52.665Z,87.24
2023-01-17T08:49:20.404Z,86.63
2023-01-17T08:51:47.891Z,87.21
2023-01-17T08:54:15.645Z,85.87
2023-01-17T08:56:43.365Z,86.71
2023-01-17T08:59:12.094Z,87.07
2023-01-17T09:01:46.189Z,88.13
2023-01-17T09:04:15.431Z,86.33
2023-01-17T09:06:45.705Z,85.89
2023-01-17T09:09:14.068Z,86.24
2023-01-17T09:11:41.906Z,84.72
2023-01-17T09:14:12.787Z,85.15
2023-01-17T09:16:40.241Z,83.67
2023-01-17T09:19:07.959Z,82.78
2023-01-17T09:21:35.249Z,82.42
2023-01-17T09:24:02.780Z,81.96
2023-01-17T09:26:31.001Z,81.27
2023-01-17T09:28:58.890Z,78.81
2023-01-17T09:31:29.849Z,80.68
2023-01-17T09:33:59.009Z,78.80
2023-01-17T09:36:29.336Z,81.49
2023-01-17T09:39:00.213Z,80.35
2023-01-17T09:41:32.732Z,79.69
2023-01-17T09:44:24.253Z,80.20
2023-01-17T09:46:55.844Z,79.79
2023-01-17T09:49:26.085Z,76.99
2023-01-17T09:51:54.822Z,77.17
2023-01-17T09:54:25.017Z,78.88
2023-01-17T09:57:03.090Z,78.86
2023-01-17T09:59:45.638Z,76.20
2023-01-17T10:02:39.298Z,76.84
2023-01-17T10:05:20.333Z,75.24
2023-01-17T10:07:47.784Z,74.53
2023-01-17T10:10:25.471Z,75.09
2023-01-17T10:13:16.908Z,75.80
2023-01-17T10:16:12.947Z,76.74
2023-01-17T10:18:47.982Z,74.81
2023-01-17T10:21:21.407Z,73.56
2023-01-17T10:23:56.246Z,72.68
2023-01-17T10:26:25.793Z,74.06
2023-01-17T10:28:55.495Z,73.58
2023-01-17T10:31:31.222Z,74.88
2023-01-17T10:34:11.281Z,73.12
2023-01-17T10:36:43.856Z,72.89
2023-01-17T10:39:24.839Z,71.43
2023-01-17T10:41:59.805Z,70.67
2023-01-17T10:44:37.927Z,71.00
2023-01-17T10:47:15.008Z,72.10
2023-01-17T10:49:54.781Z,68.99
2023-01-17T10:52:47.000Z,71.78
2023-01-17T10:55:35.939Z,70.88
2023-01-17T10:58:03.972Z,68.24
2023-01-17T11:00:44.086Z,70.33
2023-01-17T11:03:13.799Z,70.77
2023-01-17T11:05:43.025Z,70.26
2023-01-17T11:08:16.256Z,70.00
2023-01-17T11:10:54.465Z,68.61
2023-01-17T11:13:24.786Z,69.50
2023-01-17T11:15:58.963Z,70.22
2023-01-17T11:18:32.619Z,68.20
2023-01-17T11:21:24.326Z,68.77
2023-01-17T11:23:56.940Z,67.19
2023-01-17T11:26:31.011Z,68.80
2023-01-17T11:29:15.752Z,67.72
2023-01-17T11:31:43.433Z,66.42
2023-01-17T11:34:22.684Z,67.01
2023-01-17T11:37:09.081Z,67.03
2023-01-17T11:39:36.395Z,68.00
2023-01-17T11:42:06.483Z,69.08
2023-01-17T11:44:36.073Z,68.31
2023-01-17T11:47:12.702Z,68.46
2023-01-17T11:49:42.008Z,68.51
2023-01-17T11:52:19.981Z,67.87
2023-01-17T11:54:48.451Z,68.30
2023-01-17T11:57:31.910Z,68.51
2023-01-17T12:00:31.303Z,68.81
2023-01-17T12:03:20.921Z,68.99
2023-01-17T12:05:53.717Z,69.71
2023-01-17T12:08:51.498Z,68.77
2023-01-17T12:11:36.219Z,68.83
2023-01-17T12:14:21.393Z,67.83
2023-01-17T12:16:57.755Z,67.67
2023-01-17T12:19:45.763Z,67.20
2023-01-17T12:22:50.677Z,65.48
2023-01-17T12:25:40.301Z,65.52
2023-01-17T12:28:13.800Z,65.35
2023-01-17T12:31:10.392Z,64.79
2023-01-17T12:33:53.538Z,65.57
2023-01-17T12:36:24.047Z,63.91
2023-01-17T12:38:51.421Z,62.65
2023-01-17T12:41:23.610Z,62.91
2023-01-17T12:43:59.138Z,60.84
2023-01-17T12:46:32.251Z,60.21
2023-01-17T12:49:09.132Z,59.53
2023-01-17T12:51:41.496Z,58.45
2023-01-17T12:54:26.057Z,59.96
2023-01-17T12:56:59.078Z,58.55
2023-01-17T12:59:40.612Z,57.40
2023-01-17T13:02:20.439Z,57.96
2023-01-17T13:04:59.084Z,57.18
2023-01-17T13:07:39.370Z,58.56
2023-01-17T13:10:25.359Z,58.29
2023-01-17T13:12:56.973Z,59.16
2023-01-17T13:15:28.867Z,59.29
2023-01-17T13:18:02.396Z,61.10
2023-01-17T13:21:07.406Z,62.04
2023-01-17T13:24:03.906Z,63.99
2023-01-17T13:26:53.157Z,64.40
2023-01-17T13:29:39.308Z,67.37
2023-01-17T13:32:35.000Z,69.27
2023-01-17T13:35:20.277Z,70.42
2023-01-17T13:38:09.705Z,71.74
2023-01-17T13:40:53.503Z,72.74
2023-01-17T13:44:02.144Z,73.58
2023-01-17T13:47:02.691Z,74.10
2023-01-17T13:49:31.696Z,75.05
2023-01-17T13:52:12.286Z,75.90
2023-01-17T13:54:45.986Z,76.77
2023-01-17T13:57:30.406Z,77.43
2023-01-17T14:00:00.175Z,77.50
2023-01-17T14:02:33.607Z,77.64
2023-01-17T14:05:24.149Z,77.72
2023-01-17T14:08:04.802Z,78.62
2023-01-17T14:10:45.384Z,78.85
2023-01-17T14:13:36.302Z,79.23
2023-01-17T14:16:24.360Z,79.66
2023-01-17T14:18:53.186Z,79.73
2023-01-17T14:21:35.758Z,79.97
2023-01-17T14:24:05.170Z,80.14
2023-01-17T14:26:51.831Z,80.41
2023-01-17T14:29:54.775Z,80.72
2023-01-17T14:32:27.796Z,80.61
2023-01-17T14:34:55.544Z,80.42
2023-01-17T14:37:32.046Z,80.85
2023-01-17T14:40:01.074Z,80.60
2023-01-17T14:42:31.507Z,80.86
2023-01-17T14:45:04.599Z,80.98
2023-01-17T14:47:36.315Z,81.50
2023-01-17T14:50:22.677Z,81.17
2023-01-17T14:53:08.549Z,81.05
2023-01-17T14:55:36.270Z,81.29
2023-01-17T14:58:04.859Z,80.74
2023-01-17T15:00:35.169Z,80.76
2023-01-17T15:03:03.787Z,80.78
2023-01-17T15:05:32.792Z,81.10
2023-01-17T15:08:00.548Z,81.29
2023-01-17T15:10:32.027Z,81.05
2023-01-17T15:13:09.805Z,80.89
2023-01-17T15:15:40.032Z,80.29
2023-01-17T15:18:13.721Z,80.73
2023-01-17T15:20:59.091Z,80.74
2023-01-17T15:23:40.628Z,80.71
2023-01-17T15:26:11.756Z,80.29
2023-01-17T15:28:40.415Z,79.93
2023-01-17T15:31:39.491Z,80.45
2023-01-17T15:34:09.630Z,80.09
2023-01-17T15:36:38.678Z,80.37
2023-01-17T15:39:18.545Z,80.29
2023-01-17T15:41:47.769Z,80.01
2023-01-17T15:44:50.450Z,80.01
2023-01-17T15:47:31.994Z,80.24
2023-01-17T15:50:01.341Z,80.59
2023-01-17T15:52:29.531Z,80.56
2023-01-17T15:55:12.645Z,80.60
2023-01-17T15:57:40.541Z,80.71
2023-01-17T16:00:13.609Z,80.96
2023-01-17T16:02:45.573Z,81.07
2023-01-17T16:05:22.809Z,80.93
2023-01-17T16:07:53.789Z,80.98
2023-01-17T16:10:23.974Z,80.83
2023-01-17T16:12:53.901Z,80.73
2023-01-17T16:15:23.711Z,80.55
2023-01-17T16:17:56.214Z,80.58
2023-01-17T16:20:29.800Z,80.54
2023-01-17T16:22:57.216Z,81.16
2023-01-17T16:25:25.404Z,81.55
2023-01-17T16:27:53.622Z,81.36
2023-01-17T16:30:24.521Z,81.03
2023-01-17T16:32:52.511Z,81.13
2023-01-17T16:35:22.742Z,81.74
2023-01-17T16:37:51.877Z,81.82
2023-01-17T16:40:21.805Z,82.25
2023-01-17T16:42:48.940Z,82.62
2023-01-17T16:45:17.553Z,82.71
2023-01-17T16:47:47.563Z,82.95
2023-01-17T16:50:17.295Z,83.55
2023-01-17T16:52:44.916Z,83.74
2023-01-17T16:55:15.456Z,83.86
2023-01-17T16:57:43.954Z,83.85
2023-01-17T17:00:12.564Z,84.03
2023-01-17T17:02:40.817Z,83.42
2023-01-17T17:05:09.623Z,82.56
2023-01-17T17:07:43.076Z,82.76
2023-01-17T17:10:11.393Z,82.85
2023-01-17T17:12:39.176Z,82.77
2023-01-17T17:15:07.621Z,83.34
2023-01-17T17:17:39.794Z,83.02
2023-01-17T17:20:11.973Z,83.24
2023-01-17T17:22:43.034Z,83.55
2023-01-17T17:25:16.125Z,83.62
2023-01-17T17:27:43.458Z,84.75
2023-01-17T17:30:12.992Z,85.58
2023-01-17T17:32:40.364Z,85.63
2023-01-17T17:35:07.974Z,85.25
2023-01-17T17:37:35.674Z,85.51
2023-01-17T17:40:05.602Z,86.12
2023-01-17T17:42:32.893Z,87.02
2023-01-17T17:45:00.629Z,87.13
2023-01-17T17:47:29.712Z,87.10
2023-01-17T17:49:57.315Z,87.38
2023-01-17T17:52:25.200Z,87.68
2023-01-17T17:54:52.741Z,88.39
2023-01-17T17:57:20.211Z,89.04
2023-01-17T17:59:47.839Z,89.34
2023-01-17T18:02:15.253Z,89.78
2023-01-17T18:04:43.035Z,89.32
2023-01-17T18:07:10.628Z,89.30
2023-01-17T18:09:39.476Z,89.41
2023-01-17T18:12:07.322Z,89.92
2023-01-17T18:14:34.859Z,89.35
2023-01-17T18:17:02.196Z,89.65
2023-01-17T18:19:30.195Z,90.36
2023-01-17T18:21:58.294Z,89.74
2023-01-17T18:24:25.739Z,89.34
2023-01-17T18:26:57.939Z,88.82
2023-01-17T18:29:27.125Z,87.57
2023-01-17T18:31:55.817Z,87.30
2023-01-17T18:34:27.201Z,86.47
2023-01-17T18:36:55.393Z,86.59
2023-01-17T18:39:26.143Z,86.88
2023-01-17T18:41:54.557Z,87.65
2023-01-17T18:44:22.935Z,88.06
2023-01-17T18:46:52.741Z,88.02
2023-01-17T18:49:20.319Z,87.71
2023-01-17T18:51:51.499Z,86.65
2023-01-17T18:54:20.482Z,86.24
2023-01-17T18:56:49.690Z,86.93
2023-01-17T18:59:21.620Z,87.51
2023-01-17T19:01:49.975Z,87.39
2023-01-17T19:04:17.931Z,88.27
2023-01-17T19:06:48.087Z,91.02
2023-01-17T19:09:17.220Z,91.14
2023-01-17T19:11:45.625Z,90.20
2023-01-17T19:14:13.457Z,90.73
2023-01-17T19:16:42.807Z,91.53
2023-01-17T19:19:14.728Z,91.96
2023-01-17T19:21:42.613Z,91.74
2023-01-17T19:24:11.992Z,91.11
2023-01-17T19:26:39.408Z,89.95
2023-01-17T19:29:07.150Z,89.38
2023-01-17T19:31:40.275Z,88.82
2023-01-17T19:34:08.479Z,89.21
2023-01-17T19:36:38.453Z,89.26
2023-01-17T19:39:07.910Z,88.86
2023-01-17T19:41:38.214Z,88.27
2023-01-17T19:44:08.960Z,88.41
2023-01-17T19:46:37.243Z,89.24
2023-01-17T19:49:07.448Z,89.35
2023-01-17T19:51:36.055Z,88.46
2023-01-17T19:54:06.594Z,89.03
2023-01-17T19:56:34.073Z,88.52
2023-01-17T19:59:02.119Z,87.95
2023-01-17T20:01:32.861Z,87.93
2023-01-17T20:04:02.117Z,85.75
2023-01-17T20:06:35.876Z,87.09
2023-01-17T20:09:05.570Z,87.11
2023-01-17T20:11:33.080Z,86.70
2023-01-17T20:14:00.696Z,86.46
2023-01-17T20:16:30.859Z,86.65
2023-01-17T20:18:59.651Z,86.33
2023-01-17T20:21:29.493Z,88.03
2023-01-17T20:23:59.130Z,88.27
2023-01-17T20:26:36.939Z,87.41
2023-01-17T20:29:10.702Z,87.16
2023-01-17T20:31:40.074Z,89.29
2023-01-17T20:34:10.863Z,90.67
2023-01-17T20:36:39.502Z,91.20
2023-01-17T20:39:08.556Z,90.39
2023-01-17T20:41:38.951Z,90.95
2023-01-17T20:44:08.061Z,90.54
2023-01-17T20:46:40.728Z,90.70
2023-01-17T20:49:15.199Z,91.73
2023-01-17T20:51:44.804Z,91.25
2023-01-17T20:54:15.149Z,90.83
2023-01-17T20:56:43.166Z,90.60
2023-01-17T20:59:19.248Z,91.31
2023-01-17T21:01:47.323Z,91.79
2023-01-17T21:04:15.301Z,91.76
2023-01-17T21:06:43.832Z,91.35
2023-01-17T21:09:14.312Z,92.64
2023-01-17T21:11:41.815Z,95.15
2023-01-17T21:14:09.273Z,94.43
2023-01-17T21:16:37.130Z,95.13
2023-01-17T21:19:05.713Z,94.08
2023-01-17T21:21:33.162Z,93.02
2023-01-17T21:24:01.017Z,92.12
2023-01-17T21:26:29.252Z,91.45
2023-01-17T21:29:00.522Z,90.92
2023-01-17T21:31:33.641Z,90.08
2023-01-17T21:34:04.616Z,89.60
2023-01-17T21:36:37.438Z,88.03
2023-01-17T21:39:07.560Z,85.09
2023-01-17T21:41:37.992Z,84.33
2023-01-17T21:44:08.830Z,83.91
2023-01-17T21:46:38.915Z,83.81
2023-01-17T21:49:08.931Z,82.54
2023-01-17T21:51:55.290Z,81.54
2023-01-17T21:54:43.755Z,77.17
2023-01-17T21:57:34.985Z,74.95
2023-01-17T22:00:04.654Z,74.77
2023-01-17T22:02:40.032Z,75.95
2023-01-17T22:05:09.035Z,76.02
2023-01-17T22:07:36.435Z,77.21
2023-01-17T22:10:03.923Z,77.04
2023-01-17T22:12:31.805Z,77.42
2023-01-17T22:14:59.065Z,77.54
2023-01-17T22:17:26.273Z,77.54
2023-01-17T22:19:53.876Z,77.58
2023-01-17T22:22:21.842Z,77.63
2023-01-17T22:24:49.098Z,77.42
2023-01-17T22:27:16.819Z,77.65
2023-01-17T22:29:44.166Z,78.22
2023-01-17T22:32:11.536Z,78.66
2023-01-17T22:34:39.361Z,78.71
2023-01-17T22:37:10.303Z,77.95
2023-01-17T22:39:38.971Z,77.58
2023-01-17T22:42:07.164Z,78.15
2023-01-17T22:44:34.652Z,78.75
2023-01-17T22:47:02.188Z,78.61
2023-01-17T22:49:29.788Z,79.62
2023-01-17T22:51:57.109Z,80.25
2023-01-17T22:54:24.682Z,79.80
2023-01-17T22:56:52.248Z,79.46
2023-01-17T22:59:19.489Z,80.07
2023-01-17T23:01:46.732Z,79.57
2023-01-17T23:04:16.188Z,80.20
2023-01-17T23:06:43.716Z,80.11
2023-01-17T23:09:14.176Z,79.08
2023-01-17T23:11:54.199Z,79.43
2023-01-17T23:14:30.095Z,79.92
2023-01-17T23:17:18.709Z,80.95
2023-01-17T23:19:51.124Z,78.88
2023-01-17T23:22:27.147Z,79.46
2023-01-17T23:24:57.108Z,79.02
2023-01-17T23:27:46.751Z,76.80
2023-01-17T23:30:15.648Z,77.85
2023-01-17T23:32:45.243Z,68.25
2023-01-17T23:35:13.423Z,66.36
2023-01-17T23:37:59.590Z,66.32
2023-01-17T23:40:27.845Z,66.80
2023-01-17T23:43:13.425Z,63.90
2023-01-17T23:45:41.175Z,63.89
2023-01-17T23:48:11.647Z,62.86
2023-01-17T23:50:44.633Z,63.87
2023-01-17T23:53:23.788Z,62.44
2023-01-17T23:55:53.557Z,60.73
2023-01-17T23:58:23.739Z,62.01
